sensor_id;sensor_type;location;lat;lon;timestamp;P1;durP1;ratioP1;P2;durP2;ratioP2
20040;SDS011;10181;48.072;9.884;2023-05-09T00:00:15;37.83;;;35.63;;
20040;SDS011;10181;48.072;9.884;2023-05-09T00:02:41;33.50;;;30.90;;
20040;SDS011;10181;48.072;9.884;2023-05-09T00:05:09;31.53;;;29.33;;
20040;SDS011;10181;48.072;9.884;2023-05-09T00:07:35;30.93;;;28.83;;
20040;SDS011;10181;48.072;9.884;2023-05-09T00:10:01;30.13;;;27.53;;
20040;SDS011;10181;48.072;9.884;2023-05-09T00:12:27;31.67;;;29.27;;
20040;SDS011;10181;48.072;9.884;2023-05-09T00:14:53;34.20;;;31.43;;
20040;SDS011;10181;48.072;9.884;2023-05-09T00:17:21;30.80;;;28.63;;
20040;SDS011;10181;48.072;9.884;2023-05-09T00:19:48;30.47;;;28.37;;
20040;SDS011;10181;48.072;9.884;2023-05-09T00:22:15;32.73;;;30.33;;
20040;SDS011;10181;48.072;9.884;2023-05-09T00:24:45;35.37;;;32.87;;
20040;SDS011;10181;48.072;9.884;2023-05-09T00:27:11;34.80;;;32.53;;
20040;SDS011;10181;48.072;9.884;2023-05-09T00:29:37;38.57;;;35.93;;
20040;SDS011;10181;48.072;9.884;2023-05-09T00:32:03;44.00;;;41.07;;
20040;SDS011;10181;48.072;9.884;2023-05-09T00:34:28;43.27;;;40.57;;
20040;SDS011;10181;48.072;9.884;2023-05-09T00:36:54;41.13;;;38.63;;
20040;SDS011;10181;48.072;9.884;2023-05-09T00:39:20;52.00;;;48.97;;
20040;SDS011;10181;48.072;9.884;2023-05-09T00:41:46;55.83;;;52.60;;
20040;SDS011;10181;48.072;9.884;2023-05-09T00:44:11;62.60;;;59.27;;
20040;SDS011;10181;48.072;9.884;2023-05-09T00:46:37;72.57;;;68.37;;
20040;SDS011;10181;48.072;9.884;2023-05-09T00:49:03;73.20;;;69.37;;
20040;SDS011;10181;48.072;9.884;2023-05-09T00:51:30;77.43;;;73.17;;
20040;SDS011;10181;48.072;9.884;2023-05-09T00:53:56;77.93;;;73.47;;
20040;SDS011;10181;48.072;9.884;2023-05-09T00:56:22;77.40;;;73.33;;
20040;SDS011;10181;48.072;9.884;2023-05-09T00:58:47;79.87;;;75.87;;
20040;SDS011;10181;48.072;9.884;2023-05-09T01:01:14;86.77;;;81.87;;
20040;SDS011;10181;48.072;9.884;2023-05-09T01:03:40;81.57;;;76.93;;
20040;SDS011;10181;48.072;9.884;2023-05-09T01:06:12;84.80;;;80.20;;
20040;SDS011;10181;48.072;9.884;2023-05-09T01:11:38;86.23;;;81.93;;
20040;SDS011;10181;48.072;9.884;2023-05-09T01:20:01;81.97;;;77.60;;
20040;SDS011;10181;48.072;9.884;2023-05-09T01:22:46;71.47;;;67.63;;
20040;SDS011;10181;48.072;9.884;2023-05-09T01:25:36;68.87;;;65.07;;
20040;SDS011;10181;48.072;9.884;2023-05-09T01:30:38;66.60;;;62.87;;
20040;SDS011;10181;48.072;9.884;2023-05-09T01:33:08;54.60;;;51.43;;
20040;SDS011;10181;48.072;9.884;2023-05-09T01:35:37;56.77;;;53.60;;
20040;SDS011;10181;48.072;9.884;2023-05-09T01:38:08;50.80;;;47.63;;
20040;SDS011;10181;48.072;9.884;2023-05-09T01:40:37;51.10;;;47.93;;
20040;SDS011;10181;48.072;9.884;2023-05-09T01:43:07;57.93;;;54.53;;
20040;SDS011;10181;48.072;9.884;2023-05-09T01:45:35;58.70;;;55.07;;
20040;SDS011;10181;48.072;9.884;2023-05-09T01:48:05;55.27;;;52.07;;
20040;SDS011;10181;48.072;9.884;2023-05-09T01:50:32;48.23;;;45.27;;
20040;SDS011;10181;48.072;9.884;2023-05-09T01:53:00;49.90;;;47.03;;
20040;SDS011;10181;48.072;9.884;2023-05-09T01:55:27;43.07;;;40.40;;
20040;SDS011;10181;48.072;9.884;2023-05-09T01:57:56;51.47;;;48.53;;
20040;SDS011;10181;48.072;9.884;2023-05-09T02:00:23;46.47;;;43.27;;
20040;SDS011;10181;48.072;9.884;2023-05-09T02:02:50;43.90;;;40.53;;
20040;SDS011;10181;48.072;9.884;2023-05-09T02:05:16;40.37;;;37.17;;
20040;SDS011;10181;48.072;9.884;2023-05-09T02:07:42;37.47;;;34.20;;
20040;SDS011;10181;48.072;9.884;2023-05-09T02:10:10;30.40;;;27.73;;
20040;SDS011;10181;48.072;9.884;2023-05-09T02:12:36;24.60;;;22.67;;
20040;SDS011;10181;48.072;9.884;2023-05-09T02:15:03;26.87;;;24.87;;
20040;SDS011;10181;48.072;9.884;2023-05-09T02:17:29;30.73;;;27.93;;
20040;SDS011;10181;48.072;9.884;2023-05-09T02:19:56;27.13;;;24.93;;
20040;SDS011;10181;48.072;9.884;2023-05-09T02:22:21;33.03;;;29.97;;
20040;SDS011;10181;48.072;9.884;2023-05-09T02:24:47;31.30;;;28.53;;
20040;SDS011;10181;48.072;9.884;2023-05-09T02:27:13;27.87;;;25.63;;
20040;SDS011;10181;48.072;9.884;2023-05-09T02:29:43;32.73;;;29.47;;
20040;SDS011;10181;48.072;9.884;2023-05-09T02:32:18;31.03;;;28.00;;
20040;SDS011;10181;48.072;9.884;2023-05-09T02:34:47;27.53;;;25.07;;
20040;SDS011;10181;48.072;9.884;2023-05-09T02:37:14;25.20;;;23.10;;
20040;SDS011;10181;48.072;9.884;2023-05-09T02:39:41;25.87;;;23.57;;
20040;SDS011;10181;48.072;9.884;2023-05-09T02:42:08;28.17;;;25.30;;
20040;SDS011;10181;48.072;9.884;2023-05-09T02:44:35;28.27;;;25.50;;
20040;SDS011;10181;48.072;9.884;2023-05-09T02:47:02;21.23;;;19.33;;
20040;SDS011;10181;48.072;9.884;2023-05-09T02:49:29;21.67;;;19.77;;
20040;SDS011;10181;48.072;9.884;2023-05-09T02:51:55;22.27;;;20.30;;
20040;SDS011;10181;48.072;9.884;2023-05-09T02:54:20;25.17;;;22.83;;
20040;SDS011;10181;48.072;9.884;2023-05-09T02:56:46;21.67;;;19.93;;
20040;SDS011;10181;48.072;9.884;2023-05-09T02:59:12;27.97;;;25.30;;
20040;SDS011;10181;48.072;9.884;2023-05-09T03:01:37;22.40;;;20.33;;
20040;SDS011;10181;48.072;9.884;2023-05-09T03:04:03;21.83;;;20.13;;
20040;SDS011;10181;48.072;9.884;2023-05-09T03:06:29;21.03;;;19.30;;
20040;SDS011;10181;48.072;9.884;2023-05-09T03:08:54;21.33;;;19.67;;
20040;SDS011;10181;48.072;9.884;2023-05-09T03:11:21;26.00;;;23.67;;
20040;SDS011;10181;48.072;9.884;2023-05-09T03:13:46;21.37;;;19.77;;
20040;SDS011;10181;48.072;9.884;2023-05-09T03:16:12;23.90;;;22.17;;
20040;SDS011;10181;48.072;9.884;2023-05-09T03:18:39;28.57;;;26.20;;
20040;SDS011;10181;48.072;9.884;2023-05-09T03:21:05;27.37;;;25.33;;
20040;SDS011;10181;48.072;9.884;2023-05-09T03:23:31;32.80;;;30.10;;
20040;SDS011;10181;48.072;9.884;2023-05-09T03:25:56;27.67;;;25.77;;
20040;SDS011;10181;48.072;9.884;2023-05-09T03:28:22;26.13;;;24.23;;
20040;SDS011;10181;48.072;9.884;2023-05-09T03:30:48;23.27;;;21.77;;
20040;SDS011;10181;48.072;9.884;2023-05-09T03:33:14;23.87;;;22.13;;
20040;SDS011;10181;48.072;9.884;2023-05-09T03:35:39;23.70;;;21.80;;
20040;SDS011;10181;48.072;9.884;2023-05-09T03:38:05;24.47;;;22.40;;
20040;SDS011;10181;48.072;9.884;2023-05-09T03:40:31;23.10;;;21.10;;
20040;SDS011;10181;48.072;9.884;2023-05-09T03:42:56;22.13;;;20.23;;
20040;SDS011;10181;48.072;9.884;2023-05-09T03:45:22;23.30;;;21.00;;
20040;SDS011;10181;48.072;9.884;2023-05-09T03:47:48;23.03;;;20.73;;
20040;SDS011;10181;48.072;9.884;2023-05-09T03:50:14;21.00;;;18.93;;
20040;SDS011;10181;48.072;9.884;2023-05-09T03:52:40;20.43;;;18.60;;
20040;SDS011;10181;48.072;9.884;2023-05-09T03:55:05;19.57;;;17.67;;
20040;SDS011;10181;48.072;9.884;2023-05-09T03:57:33;19.73;;;17.83;;
20040;SDS011;10181;48.072;9.884;2023-05-09T03:59:59;20.67;;;18.97;;
20040;SDS011;10181;48.072;9.884;2023-05-09T04:02:25;21.97;;;20.13;;
20040;SDS011;10181;48.072;9.884;2023-05-09T04:04:52;22.30;;;20.57;;
20040;SDS011;10181;48.072;9.884;2023-05-09T04:07:18;25.53;;;23.23;;
20040;SDS011;10181;48.072;9.884;2023-05-09T04:09:44;27.33;;;25.17;;
20040;SDS011;10181;48.072;9.884;2023-05-09T04:12:10;23.63;;;21.93;;
20040;SDS011;10181;48.072;9.884;2023-05-09T04:14:36;24.97;;;23.10;;
20040;SDS011;10181;48.072;9.884;2023-05-09T04:17:02;29.87;;;26.83;;
20040;SDS011;10181;48.072;9.884;2023-05-09T04:19:28;27.50;;;25.43;;
20040;SDS011;10181;48.072;9.884;2023-05-09T04:21:53;23.50;;;21.97;;
20040;SDS011;10181;48.072;9.884;2023-05-09T04:24:19;22.80;;;21.17;;
20040;SDS011;10181;48.072;9.884;2023-05-09T04:26:46;24.67;;;22.57;;
20040;SDS011;10181;48.072;9.884;2023-05-09T04:29:11;25.23;;;22.83;;
20040;SDS011;10181;48.072;9.884;2023-05-09T04:31:37;24.50;;;22.47;;
20040;SDS011;10181;48.072;9.884;2023-05-09T04:34:03;21.10;;;19.20;;
20040;SDS011;10181;48.072;9.884;2023-05-09T04:36:28;20.00;;;18.20;;
20040;SDS011;10181;48.072;9.884;2023-05-09T04:38:55;17.50;;;16.10;;
20040;SDS011;10181;48.072;9.884;2023-05-09T04:41:21;24.57;;;21.73;;
20040;SDS011;10181;48.072;9.884;2023-05-09T04:43:46;24.57;;;21.07;;
20040;SDS011;10181;48.072;9.884;2023-05-09T04:46:12;22.20;;;20.00;;
20040;SDS011;10181;48.072;9.884;2023-05-09T04:48:38;22.53;;;20.50;;
20040;SDS011;10181;48.072;9.884;2023-05-09T04:51:03;22.57;;;20.30;;
20040;SDS011;10181;48.072;9.884;2023-05-09T04:53:29;23.23;;;20.77;;
20040;SDS011;10181;48.072;9.884;2023-05-09T04:55:55;18.67;;;17.13;;
20040;SDS011;10181;48.072;9.884;2023-05-09T04:58:21;20.33;;;18.60;;
20040;SDS011;10181;48.072;9.884;2023-05-09T05:00:47;21.80;;;19.90;;
20040;SDS011;10181;48.072;9.884;2023-05-09T05:03:13;21.23;;;19.17;;
20040;SDS011;10181;48.072;9.884;2023-05-09T05:05:39;22.57;;;20.53;;
20040;SDS011;10181;48.072;9.884;2023-05-09T05:08:05;27.97;;;23.37;;
20040;SDS011;10181;48.072;9.884;2023-05-09T05:10:31;21.87;;;19.60;;
20040;SDS011;10181;48.072;9.884;2023-05-09T05:12:56;22.57;;;20.33;;
20040;SDS011;10181;48.072;9.884;2023-05-09T05:15:22;23.07;;;20.67;;
20040;SDS011;10181;48.072;9.884;2023-05-09T05:17:48;20.17;;;18.20;;
20040;SDS011;10181;48.072;9.884;2023-05-09T05:20:13;20.13;;;18.30;;
20040;SDS011;10181;48.072;9.884;2023-05-09T05:22:39;19.43;;;17.67;;
20040;SDS011;10181;48.072;9.884;2023-05-09T05:25:04;22.37;;;20.30;;
20040;SDS011;10181;48.072;9.884;2023-05-09T05:27:31;25.00;;;22.37;;
20040;SDS011;10181;48.072;9.884;2023-05-09T05:29:56;21.17;;;19.07;;
20040;SDS011;10181;48.072;9.884;2023-05-09T05:32:22;35.30;;;24.67;;
20040;SDS011;10181;48.072;9.884;2023-05-09T05:34:47;27.77;;;24.50;;
20040;SDS011;10181;48.072;9.884;2023-05-09T05:37:13;29.33;;;24.70;;
20040;SDS011;10181;48.072;9.884;2023-05-09T05:39:38;21.13;;;19.23;;
20040;SDS011;10181;48.072;9.884;2023-05-09T05:42:04;26.57;;;23.87;;
20040;SDS011;10181;48.072;9.884;2023-05-09T05:44:30;31.97;;;25.97;;
20040;SDS011;10181;48.072;9.884;2023-05-09T05:46:56;27.07;;;24.37;;
20040;SDS011;10181;48.072;9.884;2023-05-09T05:49:21;28.47;;;23.47;;
20040;SDS011;10181;48.072;9.884;2023-05-09T05:51:49;28.90;;;23.00;;
20040;SDS011;10181;48.072;9.884;2023-05-09T05:54:15;27.57;;;21.43;;
20040;SDS011;10181;48.072;9.884;2023-05-09T05:56:41;24.37;;;19.73;;
20040;SDS011;10181;48.072;9.884;2023-05-09T05:59:06;26.87;;;18.93;;
20040;SDS011;10181;48.072;9.884;2023-05-09T06:01:32;26.63;;;19.37;;
20040;SDS011;10181;48.072;9.884;2023-05-09T06:03:57;27.60;;;19.87;;
20040;SDS011;10181;48.072;9.884;2023-05-09T06:06:23;24.90;;;18.97;;
20040;SDS011;10181;48.072;9.884;2023-05-09T06:08:50;27.37;;;19.70;;
20040;SDS011;10181;48.072;9.884;2023-05-09T06:11:16;23.00;;;15.47;;
20040;SDS011;10181;48.072;9.884;2023-05-09T06:13:42;20.63;;;14.83;;
20040;SDS011;10181;48.072;9.884;2023-05-09T06:16:08;22.07;;;16.43;;
20040;SDS011;10181;48.072;9.884;2023-05-09T06:18:34;24.93;;;18.47;;
20040;SDS011;10181;48.072;9.884;2023-05-09T06:21:02;25.47;;;19.00;;
20040;SDS011;10181;48.072;9.884;2023-05-09T06:23:28;25.37;;;17.97;;
20040;SDS011;10181;48.072;9.884;2023-05-09T06:25:53;22.70;;;17.23;;
20040;SDS011;10181;48.072;9.884;2023-05-09T06:28:19;18.87;;;15.37;;
20040;SDS011;10181;48.072;9.884;2023-05-09T06:30:45;27.43;;;20.17;;
20040;SDS011;10181;48.072;9.884;2023-05-09T06:33:10;25.60;;;19.07;;
20040;SDS011;10181;48.072;9.884;2023-05-09T06:35:36;23.67;;;19.40;;
20040;SDS011;10181;48.072;9.884;2023-05-09T06:38:02;22.13;;;19.83;;
20040;SDS011;10181;48.072;9.884;2023-05-09T06:40:27;28.57;;;22.43;;
20040;SDS011;10181;48.072;9.884;2023-05-09T06:42:53;31.03;;;22.67;;
20040;SDS011;10181;48.072;9.884;2023-05-09T06:45:18;29.13;;;23.63;;
20040;SDS011;10181;48.072;9.884;2023-05-09T06:47:44;27.57;;;20.83;;
20040;SDS011;10181;48.072;9.884;2023-05-09T06:50:10;23.87;;;19.53;;
20040;SDS011;10181;48.072;9.884;2023-05-09T06:52:35;27.83;;;21.03;;
20040;SDS011;10181;48.072;9.884;2023-05-09T06:55:01;37.37;;;25.00;;
20040;SDS011;10181;48.072;9.884;2023-05-09T06:57:27;33.63;;;24.43;;
20040;SDS011;10181;48.072;9.884;2023-05-09T06:59:53;33.30;;;23.10;;
20040;SDS011;10181;48.072;9.884;2023-05-09T07:02:19;33.67;;;27.00;;
20040;SDS011;10181;48.072;9.884;2023-05-09T07:04:44;35.10;;;27.07;;
20040;SDS011;10181;48.072;9.884;2023-05-09T07:07:10;33.07;;;30.03;;
20040;SDS011;10181;48.072;9.884;2023-05-09T07:09:36;57.53;;;53.50;;
20040;SDS011;10181;48.072;9.884;2023-05-09T07:12:01;91.10;;;86.10;;
20040;SDS011;10181;48.072;9.884;2023-05-09T07:14:27;49.87;;;45.87;;
20040;SDS011;10181;48.072;9.884;2023-05-09T07:16:52;26.37;;;22.30;;
20040;SDS011;10181;48.072;9.884;2023-05-09T07:19:18;26.97;;;22.93;;
20040;SDS011;10181;48.072;9.884;2023-05-09T07:21:44;23.03;;;20.57;;
20040;SDS011;10181;48.072;9.884;2023-05-09T07:24:09;22.77;;;20.50;;
20040;SDS011;10181;48.072;9.884;2023-05-09T07:26:35;23.17;;;20.60;;
20040;SDS011;10181;48.072;9.884;2023-05-09T07:29:00;19.93;;;17.83;;
20040;SDS011;10181;48.072;9.884;2023-05-09T07:31:26;22.43;;;19.77;;
20040;SDS011;10181;48.072;9.884;2023-05-09T07:33:52;23.27;;;19.17;;
20040;SDS011;10181;48.072;9.884;2023-05-09T07:36:17;23.53;;;18.60;;
20040;SDS011;10181;48.072;9.884;2023-05-09T07:38:43;19.53;;;17.27;;
20040;SDS011;10181;48.072;9.884;2023-05-09T07:41:08;19.90;;;17.73;;
20040;SDS011;10181;48.072;9.884;2023-05-09T07:43:35;23.20;;;19.63;;
20040;SDS011;10181;48.072;9.884;2023-05-09T07:46:00;24.17;;;20.73;;
20040;SDS011;10181;48.072;9.884;2023-05-09T07:48:26;21.40;;;19.17;;
20040;SDS011;10181;48.072;9.884;2023-05-09T07:50:52;21.20;;;18.83;;
20040;SDS011;10181;48.072;9.884;2023-05-09T07:53:17;17.70;;;14.77;;
20040;SDS011;10181;48.072;9.884;2023-05-09T07:55:43;20.77;;;14.93;;
20040;SDS011;10181;48.072;9.884;2023-05-09T07:58:09;20.00;;;13.70;;
20040;SDS011;10181;48.072;9.884;2023-05-09T08:00:34;14.87;;;12.67;;
20040;SDS011;10181;48.072;9.884;2023-05-09T08:03:00;15.93;;;14.23;;
20040;SDS011;10181;48.072;9.884;2023-05-09T08:05:26;15.67;;;13.77;;
20040;SDS011;10181;48.072;9.884;2023-05-09T08:07:51;15.97;;;14.27;;
20040;SDS011;10181;48.072;9.884;2023-05-09T08:10:17;15.20;;;12.67;;
20040;SDS011;10181;48.072;9.884;2023-05-09T08:12:42;16.03;;;13.70;;
20040;SDS011;10181;48.072;9.884;2023-05-09T08:15:08;16.33;;;14.50;;
20040;SDS011;10181;48.072;9.884;2023-05-09T08:17:34;14.40;;;12.90;;
20040;SDS011;10181;48.072;9.884;2023-05-09T08:20:00;13.30;;;11.97;;
20040;SDS011;10181;48.072;9.884;2023-05-09T08:22:25;13.57;;;12.27;;
20040;SDS011;10181;48.072;9.884;2023-05-09T08:24:51;15.73;;;14.03;;
20040;SDS011;10181;48.072;9.884;2023-05-09T08:27:16;14.37;;;12.87;;
20040;SDS011;10181;48.072;9.884;2023-05-09T08:29:42;13.13;;;11.80;;
20040;SDS011;10181;48.072;9.884;2023-05-09T08:32:08;12.80;;;11.60;;
20040;SDS011;10181;48.072;9.884;2023-05-09T08:34:34;12.03;;;10.90;;
20040;SDS011;10181;48.072;9.884;2023-05-09T08:37:00;17.37;;;15.13;;
20040;SDS011;10181;48.072;9.884;2023-05-09T08:39:26;20.27;;;18.27;;
20040;SDS011;10181;48.072;9.884;2023-05-09T08:41:52;17.83;;;16.23;;
20040;SDS011;10181;48.072;9.884;2023-05-09T08:44:24;18.53;;;16.90;;
20040;SDS011;10181;48.072;9.884;2023-05-09T08:46:51;15.33;;;13.83;;
20040;SDS011;10181;48.072;9.884;2023-05-09T08:49:19;15.10;;;13.73;;
20040;SDS011;10181;48.072;9.884;2023-05-09T08:51:46;14.93;;;13.33;;
20040;SDS011;10181;48.072;9.884;2023-05-09T08:54:13;16.70;;;15.13;;
20040;SDS011;10181;48.072;9.884;2023-05-09T08:56:39;14.50;;;13.13;;
20040;SDS011;10181;48.072;9.884;2023-05-09T08:59:05;16.27;;;14.87;;
20040;SDS011;10181;48.072;9.884;2023-05-09T09:01:32;15.33;;;13.93;;
20040;SDS011;10181;48.072;9.884;2023-05-09T09:03:59;15.77;;;14.27;;
20040;SDS011;10181;48.072;9.884;2023-05-09T09:06:27;14.63;;;13.43;;
20040;SDS011;10181;48.072;9.884;2023-05-09T09:08:53;12.00;;;10.90;;
20040;SDS011;10181;48.072;9.884;2023-05-09T09:11:20;11.40;;;10.30;;
20040;SDS011;10181;48.072;9.884;2023-05-09T09:13:46;10.77;;;9.67;;
20040;SDS011;10181;48.072;9.884;2023-05-09T09:16:17;11.50;;;10.30;;
20040;SDS011;10181;48.072;9.884;2023-05-09T09:18:44;16.87;;;15.40;;
20040;SDS011;10181;48.072;9.884;2023-05-09T09:21:11;17.10;;;15.77;;
20040;SDS011;10181;48.072;9.884;2023-05-09T09:23:40;14.50;;;13.40;;
20040;SDS011;10181;48.072;9.884;2023-05-09T09:26:07;10.30;;;9.40;;
20040;SDS011;10181;48.072;9.884;2023-05-09T09:28:33;12.23;;;11.37;;
20040;SDS011;10181;48.072;9.884;2023-05-09T09:30:59;14.87;;;13.70;;
20040;SDS011;10181;48.072;9.884;2023-05-09T09:33:26;10.93;;;10.03;;
20040;SDS011;10181;48.072;9.884;2023-05-09T09:35:53;16.17;;;13.57;;
20040;SDS011;10181;48.072;9.884;2023-05-09T09:38:20;13.70;;;12.30;;
20040;SDS011;10181;48.072;9.884;2023-05-09T09:40:57;14.50;;;12.47;;
20040;SDS011;10181;48.072;9.884;2023-05-09T09:43:29;13.47;;;12.10;;
20040;SDS011;10181;48.072;9.884;2023-05-09T09:45:56;11.83;;;10.73;;
20040;SDS011;10181;48.072;9.884;2023-05-09T09:48:26;13.33;;;11.93;;
20040;SDS011;10181;48.072;9.884;2023-05-09T09:50:56;13.30;;;11.50;;
20040;SDS011;10181;48.072;9.884;2023-05-09T09:53:21;12.90;;;10.77;;
20040;SDS011;10181;48.072;9.884;2023-05-09T09:55:51;12.83;;;11.67;;
20040;SDS011;10181;48.072;9.884;2023-05-09T09:58:17;13.17;;;11.80;;
20040;SDS011;10181;48.072;9.884;2023-05-09T10:00:46;16.13;;;14.63;;
20040;SDS011;10181;48.072;9.884;2023-05-09T10:03:15;14.03;;;12.93;;
20040;SDS011;10181;48.072;9.884;2023-05-09T10:05:41;10.90;;;9.93;;
20040;SDS011;10181;48.072;9.884;2023-05-09T10:08:07;14.57;;;13.30;;
20040;SDS011;10181;48.072;9.884;2023-05-09T10:10:34;23.87;;;22.37;;
20040;SDS011;10181;48.072;9.884;2023-05-09T10:13:09;17.90;;;16.70;;
20040;SDS011;10181;48.072;9.884;2023-05-09T10:15:36;19.10;;;17.90;;
20040;SDS011;10181;48.072;9.884;2023-05-09T10:18:02;16.33;;;15.23;;
20040;SDS011;10181;48.072;9.884;2023-05-09T10:20:30;13.13;;;12.13;;
20040;SDS011;10181;48.072;9.884;2023-05-09T10:22:56;12.50;;;11.30;;
20040;SDS011;10181;48.072;9.884;2023-05-09T10:25:31;12.73;;;11.73;;
20040;SDS011;10181;48.072;9.884;2023-05-09T10:28:11;14.43;;;13.23;;
20040;SDS011;10181;48.072;9.884;2023-05-09T10:33:36;10.50;;;9.70;;
20040;SDS011;10181;48.072;9.884;2023-05-09T10:36:06;9.87;;;9.00;;
20040;SDS011;10181;48.072;9.884;2023-05-09T10:38:33;10.53;;;9.63;;
20040;SDS011;10181;48.072;9.884;2023-05-09T10:40:59;19.67;;;18.30;;
20040;SDS011;10181;48.072;9.884;2023-05-09T10:43:26;20.80;;;19.10;;
20040;SDS011;10181;48.072;9.884;2023-05-09T10:45:52;12.20;;;11.17;;
20040;SDS011;10181;48.072;9.884;2023-05-09T10:48:19;11.57;;;10.77;;
20040;SDS011;10181;48.072;9.884;2023-05-09T10:50:46;12.73;;;11.83;;
20040;SDS011;10181;48.072;9.884;2023-05-09T10:53:12;13.70;;;12.77;;
20040;SDS011;10181;48.072;9.884;2023-05-09T10:58:28;11.48;;;10.57;;
20040;SDS011;10181;48.072;9.884;2023-05-09T11:01:00;10.32;;;9.63;;
20040;SDS011;10181;48.072;9.884;2023-05-09T11:03:28;12.88;;;10.48;;
20040;SDS011;10181;48.072;9.884;2023-05-09T11:17:00;9.10;;;8.32;;
20040;SDS011;10181;48.072;9.884;2023-05-09T11:19:37;7.95;;;7.20;;
20040;SDS011;10181;48.072;9.884;2023-05-09T11:22:29;16.55;;;15.32;;
20040;SDS011;10181;48.072;9.884;2023-05-09T11:27:42;11.15;;;10.35;;
20040;SDS011;10181;48.072;9.884;2023-05-09T11:30:13;10.38;;;9.38;;
20040;SDS011;10181;48.072;9.884;2023-05-09T11:32:44;10.27;;;9.38;;
20040;SDS011;10181;48.072;9.884;2023-05-09T11:35:12;10.95;;;9.75;;
20040;SDS011;10181;48.072;9.884;2023-05-09T11:40:13;20.65;;;19.42;;
20040;SDS011;10181;48.072;9.884;2023-05-09T11:42:44;31.55;;;29.80;;
20040;SDS011;10181;48.072;9.884;2023-05-09T11:45:12;29.05;;;27.45;;
20040;SDS011;10181;48.072;9.884;2023-05-09T11:47:39;23.27;;;21.98;;
20040;SDS011;10181;48.072;9.884;2023-05-09T11:50:11;23.65;;;22.27;;
20040;SDS011;10181;48.072;9.884;2023-05-09T11:52:38;28.10;;;26.58;;
20040;SDS011;10181;48.072;9.884;2023-05-09T11:55:05;28.13;;;26.58;;
20040;SDS011;10181;48.072;9.884;2023-05-09T11:57:32;30.05;;;28.35;;
20040;SDS011;10181;48.072;9.884;2023-05-09T11:59:59;24.50;;;23.15;;
20040;SDS011;10181;48.072;9.884;2023-05-09T12:02:25;11.75;;;11.05;;
20040;SDS011;10181;48.072;9.884;2023-05-09T12:04:51;10.23;;;9.52;;
20040;SDS011;10181;48.072;9.884;2023-05-09T12:07:18;13.55;;;12.75;;
20040;SDS011;10181;48.072;9.884;2023-05-09T12:09:44;11.20;;;10.18;;
20040;SDS011;10181;48.072;9.884;2023-05-09T12:12:13;10.95;;;10.30;;
20040;SDS011;10181;48.072;9.884;2023-05-09T12:14:41;13.55;;;12.80;;
20040;SDS011;10181;48.072;9.884;2023-05-09T12:17:07;6.88;;;6.43;;
20040;SDS011;10181;48.072;9.884;2023-05-09T12:19:34;9.25;;;8.75;;
20040;SDS011;10181;48.072;9.884;2023-05-09T12:22:01;5.95;;;5.55;;
20040;SDS011;10181;48.072;9.884;2023-05-09T12:24:29;7.32;;;6.07;;
20040;SDS011;10181;48.072;9.884;2023-05-09T12:26:55;6.22;;;5.88;;
20040;SDS011;10181;48.072;9.884;2023-05-09T12:29:22;6.95;;;6.55;;
20040;SDS011;10181;48.072;9.884;2023-05-09T12:31:49;6.32;;;5.97;;
20040;SDS011;10181;48.072;9.884;2023-05-09T12:34:16;6.78;;;6.28;;
20040;SDS011;10181;48.072;9.884;2023-05-09T12:36:43;7.47;;;6.97;;
20040;SDS011;10181;48.072;9.884;2023-05-09T12:39:15;6.97;;;6.38;;
20040;SDS011;10181;48.072;9.884;2023-05-09T12:41:49;5.88;;;5.40;;
20040;SDS011;10181;48.072;9.884;2023-05-09T12:44:19;8.43;;;7.72;;
20040;SDS011;10181;48.072;9.884;2023-05-09T12:46:56;6.45;;;5.85;;
20040;SDS011;10181;48.072;9.884;2023-05-09T12:49:24;7.13;;;6.72;;
20040;SDS011;10181;48.072;9.884;2023-05-09T12:51:50;9.77;;;9.07;;
20040;SDS011;10181;48.072;9.884;2023-05-09T12:54:24;9.15;;;8.55;;
20040;SDS011;10181;48.072;9.884;2023-05-09T12:56:51;8.85;;;8.27;;
20040;SDS011;10181;48.072;9.884;2023-05-09T12:59:22;6.50;;;6.10;;
20040;SDS011;10181;48.072;9.884;2023-05-09T13:01:52;9.85;;;9.35;;
20040;SDS011;10181;48.072;9.884;2023-05-09T13:04:23;9.07;;;8.57;;
20040;SDS011;10181;48.072;9.884;2023-05-09T13:06:50;11.57;;;10.88;;
20040;SDS011;10181;48.072;9.884;2023-05-09T13:09:17;7.18;;;6.68;;
20040;SDS011;10181;48.072;9.884;2023-05-09T13:11:44;6.55;;;6.07;;
20040;SDS011;10181;48.072;9.884;2023-05-09T13:14:11;9.75;;;9.13;;
20040;SDS011;10181;48.072;9.884;2023-05-09T13:16:37;11.05;;;10.43;;
20040;SDS011;10181;48.072;9.884;2023-05-09T13:19:03;11.73;;;11.13;;
20040;SDS011;10181;48.072;9.884;2023-05-09T13:21:29;9.52;;;8.93;;
20040;SDS011;10181;48.072;9.884;2023-05-09T13:23:55;11.10;;;10.60;;
20040;SDS011;10181;48.072;9.884;2023-05-09T13:26:22;9.30;;;8.82;;
20040;SDS011;10181;48.072;9.884;2023-05-09T13:28:48;13.50;;;12.88;;
20040;SDS011;10181;48.072;9.884;2023-05-09T13:31:13;8.30;;;7.90;;
20040;SDS011;10181;48.072;9.884;2023-05-09T13:33:39;9.68;;;9.18;;
20040;SDS011;10181;48.072;9.884;2023-05-09T13:36:05;13.02;;;12.32;;
20040;SDS011;10181;48.072;9.884;2023-05-09T13:38:31;13.25;;;12.55;;
20040;SDS011;10181;48.072;9.884;2023-05-09T13:41:00;8.23;;;7.72;;
20040;SDS011;10181;48.072;9.884;2023-05-09T13:43:26;13.27;;;12.57;;
20040;SDS011;10181;48.072;9.884;2023-05-09T13:45:51;11.27;;;10.77;;
20040;SDS011;10181;48.072;9.884;2023-05-09T13:48:17;10.27;;;9.73;;
20040;SDS011;10181;48.072;9.884;2023-05-09T13:50:43;8.38;;;7.70;;
20040;SDS011;10181;48.072;9.884;2023-05-09T13:53:08;7.10;;;6.60;;
20040;SDS011;10181;48.072;9.884;2023-05-09T13:55:34;7.28;;;6.85;;
20040;SDS011;10181;48.072;9.884;2023-05-09T13:57:59;8.40;;;7.80;;
20040;SDS011;10181;48.072;9.884;2023-05-09T14:00:25;8.07;;;7.57;;
20040;SDS011;10181;48.072;9.884;2023-05-09T14:02:51;5.28;;;4.85;;
20040;SDS011;10181;48.072;9.884;2023-05-09T14:05:16;6.65;;;6.25;;
20040;SDS011;10181;48.072;9.884;2023-05-09T14:07:42;11.70;;;11.18;;
20040;SDS011;10181;48.072;9.884;2023-05-09T14:10:09;8.43;;;7.63;;
20040;SDS011;10181;48.072;9.884;2023-05-09T14:12:35;11.20;;;10.60;;
20040;SDS011;10181;48.072;9.884;2023-05-09T14:15:03;10.77;;;10.27;;
20040;SDS011;10181;48.072;9.884;2023-05-09T14:17:30;9.25;;;8.80;;
20040;SDS011;10181;48.072;9.884;2023-05-09T14:19:55;11.32;;;10.73;;
20040;SDS011;10181;48.072;9.884;2023-05-09T14:22:21;9.50;;;6.18;;
20040;SDS011;10181;48.072;9.884;2023-05-09T14:24:47;8.52;;;8.13;;
20040;SDS011;10181;48.072;9.884;2023-05-09T14:27:13;7.97;;;7.38;;
20040;SDS011;10181;48.072;9.884;2023-05-09T14:29:38;5.78;;;5.10;;
20040;SDS011;10181;48.072;9.884;2023-05-09T14:32:04;6.65;;;6.25;;
20040;SDS011;10181;48.072;9.884;2023-05-09T14:34:32;8.25;;;7.70;;
20040;SDS011;10181;48.072;9.884;2023-05-09T14:36:57;6.88;;;6.47;;
20040;SDS011;10181;48.072;9.884;2023-05-09T14:39:23;5.43;;;5.13;;
20040;SDS011;10181;48.072;9.884;2023-05-09T14:41:49;5.47;;;5.15;;
20040;SDS011;10181;48.072;9.884;2023-05-09T14:44:16;6.97;;;6.47;;
20040;SDS011;10181;48.072;9.884;2023-05-09T14:46:41;5.00;;;4.65;;
20040;SDS011;10181;48.072;9.884;2023-05-09T14:49:07;5.22;;;4.93;;
20040;SDS011;10181;48.072;9.884;2023-05-09T14:51:33;6.47;;;6.03;;
20040;SDS011;10181;48.072;9.884;2023-05-09T14:53:59;5.18;;;4.88;;
20040;SDS011;10181;48.072;9.884;2023-05-09T14:56:25;5.93;;;5.53;;